Commerce, Michigan
Current Conditions -  °F | °C
As of 3:53 AM on Saturday 29 Nov 2014 (Local Time) from KPTK Reporting Station
Overcast Overcast  
Wind Chill: 21°   Ceiling: 5000
Heat Index: 29°   Visibility: 10mi
Dew Point: 22°   Wind: 8mph
Humidity: 75%   Direction: 170°S
Pressure: 29.98"   Gusts: NA
Location:  42.5503°N, 83.474°W
Report Text: KPTK 290853Z AUTO 17007KT 10SM OVC050 M02/M06 A2998 RMK AO2 SLP165 60000 T10171056 58017
Loading
Personal Weather Stations






























Interactive Weather Map New forecast layout! Learn more

10-Day Weather Forecast

Advertisements
Track Severe Weather on mobile